Time;durP1;ratioP1;P1;durP2;ratioP2;P2;SDS_P1;SDS_P2;PMS_P1;PMS_P2;Temp;Humidity;BMP_temperature;BMP_pressure;BME280_temperature;BME280_humidity;BME280_pressure;Samples;Min_cycle;Max_cycle;Signal;HPM_P1;HPM_P2
2022/11/25 00:00:29;;;;;;;2.45;2.25;;;;;;;5.93;65.74;100455.94;18415934;32;20101;-59
2022/11/25 00:10:34;;;;;;;22.25;7.03;;;;;;;6.36;64.89;100456.69;18428501;32;20097;-59
2022/11/25 00:20:37;;;;;;;0.98;0.80;;;;;;;6.64;63.27;100466.63;18431710;32;20097;-59
2022/11/25 00:30:42;;;;;;;0.70;0.70;;;;;;;6.31;63.07;100475.59;18436655;32;20093;-59
2022/11/25 00:44:34;;;;;;;1.77;1.65;;;;;;;5.95;65.12;100486.19;18436397;32;20119;-59
2022/11/25 00:51:10;;;;;;;2.97;2.78;;;;;;;6.20;63.87;100501.34;18435822;32;20109;-59
2022/11/25 01:01:13;;;;;;;0.70;0.70;;;;;;;6.16;65.42;100507.31;18436588;32;20417;-59
2022/11/25 01:11:19;;;;;;;3.22;2.92;;;;;;;6.54;63.63;100507.09;18435062;32;20342;-59
2022/11/25 01:21:24;;;;;;;0.95;0.60;;;;;;;7.03;62.02;100509.56;18435890;32;20120;-59
2022/11/25 01:31:30;;;;;;;0.70;0.70;;;;;;;6.71;61.80;100520.34;18434036;32;20089;-59
2022/11/25 01:41:35;;;;;;;0.68;0.68;;;;;;;6.29;62.72;100537.78;18434655;32;20102;-59
2022/11/25 01:51:41;;;;;;;0.50;0.50;;;;;;;6.36;62.79;100552.63;18433747;32;20425;-60
2022/11/25 02:01:44;;;;;;;0.62;0.62;;;;;;;6.14;62.47;100558.28;18434122;32;20084;-59
2022/11/25 02:11:49;;;;;;;0.57;0.57;;;;;;;5.67;64.18;100540.06;18433777;32;20093;-59
2022/11/25 02:21:55;;;;;;;0.50;0.50;;;;;;;6.26;65.30;100527.38;18433367;32;20097;-59
2022/11/25 02:32:00;;;;;;;4.47;1.98;;;;;;;5.61;68.30;100552.03;18418506;32;20141;-59
2022/11/25 02:42:03;;;;;;;0.75;0.75;;;;;;;6.51;65.39;100554.59;18432728;32;20117;-59
2022/11/25 02:52:07;;;;;;;1.70;1.60;;;;;;;6.63;64.20;100556.53;18432329;32;20111;-59
2022/11/25 03:02:10;;;;;;;0.85;0.80;;;;;;;6.52;63.88;100571.91;18432397;32;20131;-59
2022/11/25 03:12:21;;;;;;;0.70;0.70;;;;;;;6.72;63.03;100581.75;18431517;32;20089;-59
2022/11/25 03:22:25;;;;;;;0.60;0.60;;;;;;;6.25;62.85;100599.09;18431154;32;20097;-59
2022/11/25 03:32:30;;;;;;;0.85;0.85;;;;;;;6.00;62.71;100605.50;18430740;32;20107;-59
2022/11/25 03:42:33;;;;;;;0.70;0.70;;;;;;;5.57;63.89;100609.78;18430075;32;20120;-59
2022/11/25 03:52:38;;;;;;;0.57;0.57;;;;;;;5.39;63.39;100634.44;18430317;32;20164;-59
2022/11/25 04:02:41;;;;;;;0.50;0.50;;;;;;;5.14;63.88;100633.84;18437394;32;20428;-59
2022/11/25 04:12:48;;;;;;;0.60;0.60;;;;;;;4.97;63.25;100647.25;18436504;32;20104;-59
2022/11/25 04:22:51;;;;;;;0.55;0.55;;;;;;;4.55;63.91;100656.56;18436670;32;20097;-59
2022/11/25 04:32:56;;;;;;;0.95;0.95;;;;;;;4.51;63.66;100662.47;18436432;32;20111;-59
2022/11/25 04:42:59;;;;;;;0.80;0.80;;;;;;;4.09;64.36;100675.97;18437171;32;20101;-59
2022/11/25 04:53:12;;;;;;;;;;;;;;;4.01;64.11;100686.06;18435953;32;20411;-59
2022/11/25 05:03:15;;;;;;;0.50;0.50;;;;;;;3.88;64.25;100706.38;18435270;32;19998;-59
2022/11/25 05:13:19;;;;;;;0.82;0.82;;;;;;;3.62;64.42;100700.41;18435175;32;20136;-59
2022/11/25 05:23:22;;;;;;;1.30;1.23;;;;;;;3.42;64.67;100730.75;18434960;32;20089;-59
2022/11/25 05:33:27;;;;;;;1.62;1.58;;;;;;;3.32;65.15;100737.31;18435601;32;20161;-59
2022/11/25 05:43:30;;;;;;;0.70;0.70;;;;;;;3.42;64.73;100752.28;18434222;32;20101;-59
2022/11/25 05:53:36;;;;;;;0.62;0.62;;;;;;;3.41;64.65;100753.09;18432490;32;20084;-59
2022/11/25 06:03:39;;;;;;;1.40;1.35;;;;;;;3.18;64.98;100760.94;18433671;32;20111;-59
2022/11/25 06:13:44;;;;;;;0.70;0.70;;;;;;;3.07;65.46;100784.62;18432924;32;20262;-59
2022/11/25 06:23:47;;;;;;;0.90;0.90;;;;;;;3.12;65.34;100802.00;18418684;32;20408;-59
2022/11/25 06:33:52;;;;;;;0.70;0.70;;;;;;;3.18;64.59;100822.00;18432284;32;20096;-59
2022/11/25 06:43:55;;;;;;;0.60;0.60;;;;;;;3.30;65.20;100840.50;18432459;32;20085;-59
2022/11/25 06:54:00;;;;;;;0.50;0.50;;;;;;;3.45;65.19;100837.56;18432339;32;20191;-59
2022/11/25 07:04:05;;;;;;;0.62;0.62;;;;;;;4.48;64.44;100845.97;18431223;32;20119;-59
2022/11/25 07:14:12;;;;;;;0.55;0.55;;;;;;;5.91;60.29;100860.13;18387822;32;20192;-60
2022/11/25 07:24:16;;;;;;;4.75;3.62;;;;;;;6.52;59.48;100853.78;18431129;32;20380;-60
2022/11/25 07:34:21;;;;;;;1.37;1.27;;;;;;;7.04;58.02;100860.87;18430246;32;20097;-59
2022/11/25 07:44:24;;;;;;;1.30;1.20;;;;;;;6.98;58.57;100877.19;18431263;32;20113;-60
2022/11/25 07:54:28;;;;;;;1.45;1.35;;;;;;;6.99;59.74;100875.50;18376292;32;20179;-60
2022/11/25 08:04:31;;;;;;;9.95;2.85;;;;;;;7.00;61.30;100879.84;18364034;32;20113;-60
2022/11/25 08:14:36;;;;;;;1.37;1.27;;;;;;;7.21;61.33;100892.38;18410632;32;20105;-60
2022/11/25 08:24:39;;;;;;;1.87;1.77;;;;;;;7.25;61.84;100901.97;18422670;32;20093;-60
2022/11/25 08:34:44;;;;;;;0.50;0.50;;;;;;;7.71;61.08;100898.47;18425062;32;20111;-60
2022/11/25 08:44:51;;;;;;;0.60;0.60;;;;;;;7.50;62.40;100898.09;18426786;32;204758;-60
2022/11/25 08:54:56;;;;;;;3.12;2.05;;;;;;;8.23;60.74;100895.88;18436564;32;20089;-60
2022/11/25 09:05:00;;;;;;;0.90;0.90;;;;;;;7.91;60.97;100902.28;18433857;32;20101;-60
2022/11/25 09:15:05;;;;;;;0.60;0.60;;;;;;;8.93;58.49;100886.44;18435362;32;20113;-60
2022/11/25 09:25:09;;;;;;;0.88;0.88;;;;;;;9.60;56.15;100886.31;18435578;32;20123;-60
2022/11/25 09:35:14;;;;;;;1.27;1.17;;;;;;;9.87;55.22;100890.03;18434239;32;20112;-60
2022/11/25 09:55:45;;;;;;;1.12;0.75;;;;;;;9.23;55.36;100877.25;18432820;32;20429;-60
2022/11/25 10:05:57;;;;;;;1.15;1.15;;;;;;;10.22;53.84;100877.25;18433861;32;20117;-60
2022/11/25 10:16:02;;;;;;;;;;;;;;;9.49;54.90;100867.94;18418795;32;20170;-60
2022/11/25 10:26:12;;;;;;;0.45;0.45;;;;;;;10.13;54.24;100862.38;18433384;32;19972;-60
2022/11/25 10:36:20;;;;;;;1.73;1.62;;;;;;;10.71;53.37;100860.16;18432348;32;20710;-60
2022/11/25 10:46:28;;;;;;;0.50;0.50;;;;;;;11.29;50.92;100860.37;18430382;32;20399;-61
2022/11/25 10:56:55;;;;;;;0.60;0.60;;;;;;;11.44;51.46;100865.59;18426296;32;20094;-59
2022/11/25 11:07:07;;;;;;;0.50;0.50;;;;;;;11.45;51.69;100864.72;18432260;32;20138;-59
2022/11/25 11:17:31;;;;;;;1.60;1.05;;;;;;;11.61;50.78;100867.37;18431445;32;20097;-59
2022/11/25 11:27:39;;;;;;;0.68;0.68;;;;;;;11.89;50.59;100862.16;18431189;32;20085;-59
2022/11/25 11:37:45;;;;;;;0.50;0.50;;;;;;;12.48;49.60;100862.09;18431873;32;20120;-59
2022/11/25 11:47:59;;;;;;;0.32;0.32;;;;;;;12.68;49.97;100853.31;18428949;32;20088;-60
2022/11/25 11:58:11;;;;;;;0.50;0.50;;;;;;;12.82;50.42;100848.91;18426619;32;20112;-59
2022/11/25 12:08:18;;;;;;;1.05;1.00;;;;;;;12.63;50.92;100851.59;18428161;32;20077;-59
2022/11/25 12:18:42;;;;;;;0.80;0.80;;;;;;;12.88;50.68;100858.47;18430426;32;20125;-59
2022/11/25 12:28:49;;;;;;;0.50;0.50;;;;;;;13.01;50.66;100856.66;18437134;32;20093;-59
2022/11/25 12:38:56;;;;;;;10.85;2.00;;;;;;;13.28;50.59;100855.62;18435562;32;20373;-59
2022/11/25 12:48:59;;;;;;;4.37;0.95;;;;;;;13.22;50.42;100841.69;18435850;32;20123;-59
2022/11/25 12:59:21;;;;;;;0.62;0.62;;;;;;;13.21;50.24;100839.97;18433394;32;20119;-60
2022/11/25 13:09:40;;;;;;;1.17;1.02;;;;;;;13.05;50.27;100842.66;18415239;32;20353;-59
2022/11/25 13:19:45;;;;;;;1.08;1.08;;;;;;;12.79;50.14;100848.03;18426552;32;20176;-60
2022/11/25 13:29:57;;;;;;;0.40;0.40;;;;;;;12.73;50.23;100849.78;18433629;32;20115;-59
2022/11/25 13:40:29;;;;;;;0.45;0.45;;;;;;;12.76;50.43;100859.38;18413675;32;20364;-60
2022/11/25 13:50:33;;;;;;;2.80;2.00;;;;;;;12.73;50.35;100862.88;18398128;32;20490;-59
2022/11/25 14:01:22;;;;;;;0.37;0.37;;;;;;;12.35;51.11;100870.00;18392354;32;20112;-59
2022/11/25 14:11:49;;;;;;;0.75;0.73;;;;;;;12.51;51.59;100890.87;18411340;32;20631;-59
2022/11/25 14:22:10;;;;;;;0.73;0.73;;;;;;;12.43;52.44;100897.91;18385117;32;20094;-59
2022/11/25 14:32:17;;;;;;;0.40;0.40;;;;;;;12.14;53.45;100911.87;18408338;32;20602;-59
2022/11/25 14:42:23;;;;;;;0.88;0.88;;;;;;;9.72;60.71;100912.47;18416168;32;20097;-58
2022/11/25 14:52:29;;;;;;;4.37;2.45;;;;;;;8.95;62.51;100922.91;18429731;32;20105;-59
2022/11/25 15:02:35;;;;;;;1.08;1.02;;;;;;;8.34;63.68;100945.44;18430761;32;20113;-58
2022/11/25 15:12:38;;;;;;;0.60;0.60;;;;;;;8.29;63.27;100958.38;18429071;32;20097;-59
2022/11/25 15:22:52;;;;;;;2.10;2.00;;;;;;;8.84;60.44;100967.91;18395523;32;20093;-59
2022/11/25 15:32:56;;;;;;;0.90;0.90;;;;;;;8.65;59.85;100977.19;18428140;32;20097;-59
2022/11/25 15:43:03;;;;;;;2.25;2.10;;;;;;;8.17;60.75;100977.28;18428416;32;20142;-59
2022/11/25 15:53:06;;;;;;;3.20;3.00;;;;;;;8.02;61.14;100984.78;18412478;32;20100;-58
2022/11/25 16:03:21;;;;;;;1.60;1.48;;;;;;;7.62;61.74;100993.59;18410993;32;20108;-59
2022/11/25 16:13:36;;;;;;;1.77;1.35;;;;;;;7.28;62.71;101005.03;18407450;32;20109;-59
2022/11/25 16:23:44;;;;;;;0.73;0.73;;;;;;;6.91;63.86;101006.00;18385929;32;20370;-59
2022/11/25 16:33:47;;;;;;;2.12;1.20;;;;;;;6.73;64.89;101009.00;18408943;32;20820;-59
2022/11/25 16:43:52;;;;;;;2.72;1.15;;;;;;;6.75;65.46;101015.16;18362933;32;20380;-58
2022/11/25 16:54:01;;;;;;;4.53;4.23;;;;;;;6.61;66.67;101034.69;18375814;32;20151;-59
2022/11/25 17:04:06;;;;;;;0.60;0.60;;;;;;;6.53;67.20;101056.12;18364578;32;20101;-58
2022/11/25 17:14:14;;;;;;;0.70;0.70;;;;;;;6.58;67.34;101063.16;18412026;32;20096;-58
2022/11/25 17:24:20;;;;;;;2.65;2.55;;;;;;;6.63;67.29;101070.22;18432085;32;20479;-58
2022/11/25 17:34:24;;;;;;;1.23;1.12;;;;;;;6.50;67.56;101071.59;18398002;32;20112;-58
2022/11/25 17:44:29;;;;;;;1.15;1.15;;;;;;;5.83;70.62;101084.50;18392980;32;20127;-58
2022/11/25 17:54:32;;;;;;;1.27;1.20;;;;;;;4.80;74.22;101085.72;18417732;32;20494;-58
2022/11/25 18:04:37;;;;;;;1.87;1.77;;;;;;;5.57;71.90;101094.97;18423473;32;20105;-58
2022/11/25 18:14:42;;;;;;;0.65;0.65;;;;;;;6.09;70.03;101105.13;18427122;32;20101;-59
2022/11/25 18:24:47;;;;;;;2.25;2.15;;;;;;;6.22;69.92;101108.94;18416930;32;20138;-59
2022/11/25 18:34:50;;;;;;;0.60;0.60;;;;;;;5.95;70.80;101115.94;18421912;32;20132;-58
2022/11/25 18:44:56;;;;;;;0.70;0.70;;;;;;;6.16;70.36;101127.75;18411687;32;20115;-58
2022/11/25 18:54:59;;;;;;;1.80;1.70;;;;;;;6.41;69.83;101137.94;18429530;32;20093;-58
2022/11/25 19:05:14;;;;;;;1.10;1.00;;;;;;;6.64;69.21;101138.56;18416154;32;20112;-58
2022/11/25 19:15:22;;;;;;;1.27;1.27;;;;;;;6.40;69.87;101144.84;18414455;32;20137;-59
2022/11/25 19:25:27;;;;;;;1.30;1.25;;;;;;;6.70;69.19;101158.59;18427671;32;20112;-58
2022/11/25 19:35:33;;;;;;;0.70;0.70;;;;;;;6.85;69.05;101165.87;18413834;32;20124;-58
2022/11/25 19:45:38;;;;;;;6.62;5.97;;;;;;;6.89;68.97;101168.59;18407745;32;20235;-58
2022/11/25 19:55:42;;;;;;;4.12;2.78;;;;;;;7.06;68.19;101176.81;18363279;32;20150;-58
2022/11/25 20:05:47;;;;;;;0.73;0.73;;;;;;;6.90;68.75;101196.31;18366972;32;20178;-58
2022/11/25 20:15:52;;;;;;;1.08;1.08;;;;;;;7.12;68.18;101198.56;18361931;32;20089;-59
2022/11/25 20:25:57;;;;;;;0.68;0.68;;;;;;;6.95;68.75;101217.19;18360917;32;20120;-58
2022/11/25 20:36:05;;;;;;;2.87;2.42;;;;;;;6.95;68.85;101214.59;18360954;32;20196;-58
2022/11/25 20:46:15;;;;;;;9.88;1.98;;;;;;;7.01;68.81;101227.72;18389336;32;20093;-59
2022/11/25 20:56:23;;;;;;;0.60;0.60;;;;;;;7.21;68.25;101242.94;18402716;32;20108;-58
2022/11/25 21:06:30;;;;;;;0.90;0.90;;;;;;;7.26;68.02;101246.53;18383317;32;20121;-59
2022/11/25 21:16:36;;;;;;;0.50;0.50;;;;;;;7.21;68.33;101243.81;18388575;32;20121;-60
2022/11/25 21:26:40;;;;;;;0.90;0.90;;;;;;;7.28;68.19;101249.19;18417393;32;20085;-59
2022/11/25 21:36:45;;;;;;;0.70;0.70;;;;;;;7.13;68.48;101247.94;18418153;32;20339;-59
2022/11/25 21:46:52;;;;;;;1.75;1.65;;;;;;;7.13;68.42;101242.75;18430142;32;20088;-58
2022/11/25 21:56:57;;;;;;;1.00;1.00;;;;;;;6.83;68.98;101245.41;18431100;32;20097;-58
2022/11/25 22:07:02;;;;;;;0.82;0.82;;;;;;;6.86;69.31;101248.09;18430849;32;20089;-58
2022/11/25 22:17:10;;;;;;;1.20;1.20;;;;;;;6.62;69.52;101262.16;18416959;32;20158;-58
2022/11/25 22:27:20;;;;;;;4.68;1.83;;;;;;;6.23;71.51;101258.47;18415950;32;20104;-58
2022/11/25 22:37:24;;;;;;;0.90;0.90;;;;;;;5.87;73.57;101262.53;18429767;32;20149;-58
2022/11/25 22:47:33;;;;;;;2.25;2.15;;;;;;;6.16;72.29;101278.13;18430234;32;20081;-58
2022/11/25 22:57:36;;;;;;;0.55;0.55;;;;;;;6.77;69.71;101272.97;18428989;32;20093;-58
2022/11/25 23:07:42;;;;;;;0.60;0.60;;;;;;;6.91;69.29;101281.13;18428919;32;20115;-58
2022/11/25 23:17:48;;;;;;;2.10;1.60;;;;;;;6.95;69.22;101282.09;18428606;32;20097;-58
2022/11/25 23:27:53;;;;;;;2.92;2.22;;;;;;;7.17;68.50;101285.25;18428276;32;20183;-58
2022/11/25 23:37:57;;;;;;;7.72;3.05;;;;;;;7.00;68.55;101293.47;18427882;32;20186;-58
2022/11/25 23:48:01;;;;;;;8.75;2.67;;;;;;;7.04;68.70;101292.72;18428240;32;20501;-58
2022/11/25 23:58:13;;;;;;;8.77;6.32;;;;;;;6.79;69.07;101301.56;18413122;32;20381;-58
